sensor_id;sensor_type;location;lat;lon;timestamp;pressure;altitude;pressure_sealevel;temperature;humidity
75192;BME280;63771;52.580;9.734;2023-08-01T00:01:32;99507.00;;;17.17;100.00
75192;BME280;63771;52.580;9.734;2023-08-01T00:03:57;99501.78;;;17.15;100.00
75192;BME280;63771;52.580;9.734;2023-08-01T00:06:22;99497.50;;;17.16;99.94
75192;BME280;63771;52.580;9.734;2023-08-01T00:08:49;99493.97;;;17.12;100.00
75192;BME280;63771;52.580;9.734;2023-08-01T00:11:14;99487.16;;;17.14;100.00
75192;BME280;63771;52.580;9.734;2023-08-01T00:13:41;99482.88;;;17.15;100.00
75192;BME280;63771;52.580;9.734;2023-08-01T00:16:06;99484.47;;;17.11;100.00
75192;BME280;63771;52.580;9.734;2023-08-01T00:18:32;99467.25;;;17.10;100.00
75192;BME280;63771;52.580;9.734;2023-08-01T00:20:57;99473.22;;;17.09;100.00
75192;BME280;63771;52.580;9.734;2023-08-01T00:23:24;99458.50;;;17.07;100.00
75192;BME280;63771;52.580;9.734;2023-08-01T00:25:49;99464.56;;;17.07;100.00
75192;BME280;63771;52.580;9.734;2023-08-01T00:28:17;99465.28;;;17.03;100.00
75192;BME280;63771;52.580;9.734;2023-08-01T00:30:42;99461.75;;;17.01;100.00
75192;BME280;63771;52.580;9.734;2023-08-01T00:33:08;99448.81;;;17.00;100.00
75192;BME280;63771;52.580;9.734;2023-08-01T00:35:33;99449.69;;;17.00;100.00
75192;BME280;63771;52.580;9.734;2023-08-01T00:37:58;99441.97;;;17.00;100.00
75192;BME280;63771;52.580;9.734;2023-08-01T00:40:29;99440.25;;;17.01;100.00
75192;BME280;63771;52.580;9.734;2023-08-01T00:42:55;99435.19;;;17.02;100.00
75192;BME280;63771;52.580;9.734;2023-08-01T00:45:22;99428.25;;;17.01;100.00
75192;BME280;63771;52.580;9.734;2023-08-01T00:47:50;99423.09;;;17.01;100.00
75192;BME280;63771;52.580;9.734;2023-08-01T00:50:16;99426.47;;;16.99;100.00
75192;BME280;63771;52.580;9.734;2023-08-01T00:52:41;99432.38;;;16.96;100.00
75192;BME280;63771;52.580;9.734;2023-08-01T00:55:07;99422.84;;;16.93;100.00
75192;BME280;63771;52.580;9.734;2023-08-01T00:57:32;99421.16;;;16.94;100.00
75192;BME280;63771;52.580;9.734;2023-08-01T00:59:59;99420.31;;;16.95;100.00
75192;BME280;63771;52.580;9.734;2023-08-01T01:02:24;99412.53;;;16.93;100.00
75192;BME280;63771;52.580;9.734;2023-08-01T01:04:49;99412.41;;;16.90;100.00
75192;BME280;63771;52.580;9.734;2023-08-01T01:07:16;99420.16;;;16.90;100.00
75192;BME280;63771;52.580;9.734;2023-08-01T01:09:42;99406.34;;;16.88;100.00
75192;BME280;63771;52.580;9.734;2023-08-01T01:12:07;99405.47;;;16.88;100.00
75192;BME280;63771;52.580;9.734;2023-08-01T01:14:33;99402.06;;;16.89;100.00
75192;BME280;63771;52.580;9.734;2023-08-01T01:16:58;99402.91;;;16.88;100.00
75192;BME280;63771;52.580;9.734;2023-08-01T01:19:24;99395.16;;;16.88;100.00
75192;BME280;63771;52.580;9.734;2023-08-01T01:21:50;99386.59;;;16.89;100.00
75192;BME280;63771;52.580;9.734;2023-08-01T01:24:17;99388.31;;;16.88;100.00
75192;BME280;63771;52.580;9.734;2023-08-01T01:26:44;99379.72;;;16.88;100.00
75192;BME280;63771;52.580;9.734;2023-08-01T01:29:11;99377.97;;;16.87;100.00
75192;BME280;63771;52.580;9.734;2023-08-01T01:31:37;99379.75;;;16.89;100.00
75192;BME280;63771;52.580;9.734;2023-08-01T01:34:02;99374.56;;;16.88;100.00
75192;BME280;63771;52.580;9.734;2023-08-01T01:36:28;99375.44;;;16.88;100.00
75192;BME280;63771;52.580;9.734;2023-08-01T01:38:54;99381.50;;;16.90;100.00
75192;BME280;63771;52.580;9.734;2023-08-01T01:41:19;99373.72;;;16.89;100.00
75192;BME280;63771;52.580;9.734;2023-08-01T01:43:45;99375.47;;;16.90;100.00
75192;BME280;63771;52.580;9.734;2023-08-01T01:46:10;99370.41;;;16.91;100.00
75192;BME280;63771;52.580;9.734;2023-08-01T01:48:35;99367.75;;;16.90;100.00
75192;BME280;63771;52.580;9.734;2023-08-01T01:51:01;99360.00;;;16.90;100.00
75192;BME280;63771;52.580;9.734;2023-08-01T01:53:26;99360.97;;;16.92;100.00
75192;BME280;63771;52.580;9.734;2023-08-01T01:55:51;99361.75;;;16.91;100.00
75192;BME280;63771;52.580;9.734;2023-08-01T01:58:17;99359.19;;;16.91;100.00
75192;BME280;63771;52.580;9.734;2023-08-01T02:00:42;99360.97;;;16.92;100.00
75192;BME280;63771;52.580;9.734;2023-08-01T02:03:07;99351.53;;;16.92;100.00
75192;BME280;63771;52.580;9.734;2023-08-01T02:05:35;99348.09;;;16.92;100.00
75192;BME280;63771;52.580;9.734;2023-08-01T02:08:01;99342.94;;;16.92;100.00
75192;BME280;63771;52.580;9.734;2023-08-01T02:10:26;99337.81;;;16.93;100.00
75192;BME280;63771;52.580;9.734;2023-08-01T02:12:51;99330.97;;;16.94;100.00
75192;BME280;63771;52.580;9.734;2023-08-01T02:15:17;99326.63;;;16.93;100.00
75192;BME280;63771;52.580;9.734;2023-08-01T02:17:42;99316.34;;;16.93;100.00
75192;BME280;63771;52.580;9.734;2023-08-01T02:20:08;99307.78;;;16.94;100.00
75192;BME280;63771;52.580;9.734;2023-08-01T02:22:33;99305.16;;;16.92;100.00
75192;BME280;63771;52.580;9.734;2023-08-01T02:24:58;99304.31;;;16.93;100.00
75192;BME280;63771;52.580;9.734;2023-08-01T02:27:24;99306.91;;;16.93;100.00
75192;BME280;63771;52.580;9.734;2023-08-01T02:29:49;99307.72;;;16.92;100.00
75192;BME280;63771;52.580;9.734;2023-08-01T02:32:16;99313.75;;;16.93;100.00
75192;BME280;63771;52.580;9.734;2023-08-01T02:34:41;99306.03;;;16.93;100.00
75192;BME280;63771;52.580;9.734;2023-08-01T02:37:06;99317.09;;;16.90;100.00
75192;BME280;63771;52.580;9.734;2023-08-01T02:39:32;99311.94;;;16.90;100.00
75192;BME280;63771;52.580;9.734;2023-08-01T02:41:57;99303.34;;;16.90;100.00
75192;BME280;63771;52.580;9.734;2023-08-01T02:44:22;99293.84;;;16.89;100.00
75192;BME280;63771;52.580;9.734;2023-08-01T02:46:47;99295.59;;;16.90;100.00
75192;BME280;63771;52.580;9.734;2023-08-01T02:49:13;99293.03;;;16.90;100.00
75192;BME280;63771;52.580;9.734;2023-08-01T02:51:38;99291.31;;;16.90;100.00
75192;BME280;63771;52.580;9.734;2023-08-01T02:54:03;99282.78;;;16.91;100.00
75192;BME280;63771;52.580;9.734;2023-08-01T02:56:29;99275.00;;;16.90;100.00
75192;BME280;63771;52.580;9.734;2023-08-01T02:58:54;99275.06;;;16.91;100.00
75192;BME280;63771;52.580;9.734;2023-08-01T03:01:20;99267.34;;;16.91;100.00
75192;BME280;63771;52.580;9.734;2023-08-01T03:03:46;99267.34;;;16.91;100.00
75192;BME280;63771;52.580;9.734;2023-08-01T03:06:11;99278.41;;;16.89;100.00
75192;BME280;63771;52.580;9.734;2023-08-01T03:08:37;99286.97;;;16.88;100.00
75192;BME280;63771;52.580;9.734;2023-08-01T03:11:03;99266.16;;;16.82;100.00
75192;BME280;63771;52.580;9.734;2023-08-01T03:13:28;99269.63;;;16.84;100.00
75192;BME280;63771;52.580;9.734;2023-08-01T03:15:53;99267.06;;;16.84;100.00
75192;BME280;63771;52.580;9.734;2023-08-01T03:18:19;99255.84;;;16.82;100.00
75192;BME280;63771;52.580;9.734;2023-08-01T03:20:44;99252.44;;;16.83;100.00
75192;BME280;63771;52.580;9.734;2023-08-01T03:23:09;99248.16;;;16.83;100.00
75192;BME280;63771;52.580;9.734;2023-08-01T03:25:34;99240.47;;;16.85;100.00
75192;BME280;63771;52.580;9.734;2023-08-01T03:28:00;99234.41;;;16.83;100.00
75192;BME280;63771;52.580;9.734;2023-08-01T03:30:25;99241.25;;;16.82;100.00
75192;BME280;63771;52.580;9.734;2023-08-01T03:32:51;99229.16;;;16.80;100.00
75192;BME280;63771;52.580;9.734;2023-08-01T03:35:16;99220.59;;;16.81;100.00
75192;BME280;63771;52.580;9.734;2023-08-01T03:37:43;99228.22;;;16.78;100.00
75192;BME280;63771;52.580;9.734;2023-08-01T03:40:08;99229.06;;;16.77;100.00
75192;BME280;63771;52.580;9.734;2023-08-01T03:42:39;99232.56;;;16.79;100.00
75192;BME280;63771;52.580;9.734;2023-08-01T03:45:06;99244.56;;;16.78;100.00
75192;BME280;63771;52.580;9.734;2023-08-01T03:47:31;99248.84;;;16.78;100.00
75192;BME280;63771;52.580;9.734;2023-08-01T03:49:57;99241.94;;;16.77;100.00
75192;BME280;63771;52.580;9.734;2023-08-01T03:52:23;99246.16;;;16.75;100.00
75192;BME280;63771;52.580;9.734;2023-08-01T03:54:48;99234.94;;;16.73;100.00
75192;BME280;63771;52.580;9.734;2023-08-01T03:57:13;99223.75;;;16.72;100.00
75192;BME280;63771;52.580;9.734;2023-08-01T03:59:39;99233.06;;;16.70;100.00
75192;BME280;63771;52.580;9.734;2023-08-01T04:02:04;99231.41;;;16.70;100.00
75192;BME280;63771;52.580;9.734;2023-08-01T04:04:30;99236.44;;;16.67;100.00
75192;BME280;63771;52.580;9.734;2023-08-01T04:06:56;99249.28;;;16.66;100.00
75192;BME280;63771;52.580;9.734;2023-08-01T04:09:21;99250.97;;;16.65;100.00
75192;BME280;63771;52.580;9.734;2023-08-01T04:11:47;99241.38;;;16.61;100.00
75192;BME280;63771;52.580;9.734;2023-08-01T04:14:12;99246.44;;;16.58;100.00
75192;BME280;63771;52.580;9.734;2023-08-01T04:16:37;99250.75;;;16.59;100.00
75192;BME280;63771;52.580;9.734;2023-08-01T04:19:03;99251.56;;;16.58;100.00
75192;BME280;63771;52.580;9.734;2023-08-01T04:21:28;99257.59;;;16.59;100.00
75192;BME280;63771;52.580;9.734;2023-08-01T04:23:53;99254.88;;;16.54;100.00
75192;BME280;63771;52.580;9.734;2023-08-01T04:26:19;99254.78;;;16.51;100.00
75192;BME280;63771;52.580;9.734;2023-08-01T04:28:46;99254.56;;;16.45;100.00
75192;BME280;63771;52.580;9.734;2023-08-01T04:31:12;99251.84;;;16.40;100.00
75192;BME280;63771;52.580;9.734;2023-08-01T04:33:37;99252.72;;;16.41;100.00
75192;BME280;63771;52.580;9.734;2023-08-01T04:36:02;99250.97;;;16.40;100.00
75192;BME280;63771;52.580;9.734;2023-08-01T04:38:28;99252.66;;;16.39;100.00
75192;BME280;63771;52.580;9.734;2023-08-01T04:40:53;99256.19;;;16.43;100.00
75192;BME280;63771;52.580;9.734;2023-08-01T04:43:18;99250.13;;;16.41;100.00
75192;BME280;63771;52.580;9.734;2023-08-01T04:45:44;99248.38;;;16.40;100.00
75192;BME280;63771;52.580;9.734;2023-08-01T04:48:10;99249.09;;;16.36;100.00
75192;BME280;63771;52.580;9.734;2023-08-01T04:50:35;99238.81;;;16.36;100.00
75192;BME280;63771;52.580;9.734;2023-08-01T04:53:00;99242.28;;;16.38;100.00
75192;BME280;63771;52.580;9.734;2023-08-01T04:55:26;99240.66;;;16.40;100.00
75192;BME280;63771;52.580;9.734;2023-08-01T04:57:51;99236.22;;;16.36;100.00
75192;BME280;63771;52.580;9.734;2023-08-01T05:00:17;99242.19;;;16.35;100.00
75192;BME280;63771;52.580;9.734;2023-08-01T05:02:42;99240.50;;;16.35;100.00
75192;BME280;63771;52.580;9.734;2023-08-01T05:05:07;99233.59;;;16.34;100.00
75192;BME280;63771;52.580;9.734;2023-08-01T05:07:33;99234.47;;;16.35;100.00
75192;BME280;63771;52.580;9.734;2023-08-01T05:09:58;99237.97;;;16.37;100.00
75192;BME280;63771;52.580;9.734;2023-08-01T05:12:23;99246.69;;;16.40;100.00
75192;BME280;63771;52.580;9.734;2023-08-01T05:14:49;99250.13;;;16.41;100.00
75192;BME280;63771;52.580;9.734;2023-08-01T05:17:15;99245.91;;;16.43;100.00
75192;BME280;63771;52.580;9.734;2023-08-01T05:19:40;99251.03;;;16.43;100.00
75192;BME280;63771;52.580;9.734;2023-08-01T05:22:06;99251.03;;;16.43;100.00
75192;BME280;63771;52.580;9.734;2023-08-01T05:24:31;99255.38;;;16.44;100.00
75192;BME280;63771;52.580;9.734;2023-08-01T05:26:56;99253.75;;;16.46;100.00
75192;BME280;63771;52.580;9.734;2023-08-01T05:29:22;99252.00;;;16.45;100.00
75192;BME280;63771;52.580;9.734;2023-08-01T05:31:47;99250.13;;;16.41;100.00
75192;BME280;63771;52.580;9.734;2023-08-01T05:34:12;99254.25;;;16.36;100.00
75192;BME280;63771;52.580;9.734;2023-08-01T05:36:38;99255.13;;;16.36;100.00
75192;BME280;63771;52.580;9.734;2023-08-01T05:39:03;99249.97;;;16.36;100.00
75192;BME280;63771;52.580;9.734;2023-08-01T05:41:29;99251.63;;;16.34;100.00
75192;BME280;63771;52.580;9.734;2023-08-01T05:43:54;99251.38;;;16.28;100.00
75192;BME280;63771;52.580;9.734;2023-08-01T05:46:20;99250.44;;;16.25;100.00
75192;BME280;63771;52.580;9.734;2023-08-01T05:48:45;99250.31;;;16.22;100.00
75192;BME280;63771;52.580;9.734;2023-08-01T05:51:10;99252.13;;;16.24;100.00
75192;BME280;63771;52.580;9.734;2023-08-01T05:53:36;99247.03;;;16.26;100.00
75192;BME280;63771;52.580;9.734;2023-08-01T05:56:01;99251.50;;;16.31;100.00
75192;BME280;63771;52.580;9.734;2023-08-01T05:58:27;99254.25;;;16.36;100.00
75192;BME280;63771;52.580;9.734;2023-08-01T06:00:52;99257.84;;;16.41;100.00
75192;BME280;63771;52.580;9.734;2023-08-01T06:03:17;99256.19;;;16.43;100.00
75192;BME280;63771;52.580;9.734;2023-08-01T06:05:43;99264.97;;;16.48;100.00
75192;BME280;63771;52.580;9.734;2023-08-01T06:08:08;99258.97;;;16.49;100.00
75192;BME280;63771;52.580;9.734;2023-08-01T06:10:37;99271.84;;;16.49;100.00
75192;BME280;63771;52.580;9.734;2023-08-01T06:13:02;99269.28;;;16.49;100.00
75192;BME280;63771;52.580;9.734;2023-08-01T06:15:27;99265.75;;;16.46;100.00
75192;BME280;63771;52.580;9.734;2023-08-01T06:17:53;99272.59;;;16.45;100.00
75192;BME280;63771;52.580;9.734;2023-08-01T06:20:19;99270.97;;;16.49;100.00
75192;BME280;63771;52.580;9.734;2023-08-01T06:22:44;99275.16;;;16.45;100.00
75192;BME280;63771;52.580;9.734;2023-08-01T06:25:09;99279.66;;;16.51;100.00
75192;BME280;63771;52.580;9.734;2023-08-01T06:27:36;99278.78;;;16.50;100.00
75192;BME280;63771;52.580;9.734;2023-08-01T06:30:02;99276.34;;;16.55;100.00
75192;BME280;63771;52.580;9.734;2023-08-01T06:32:27;99268.59;;;16.55;100.00
75192;BME280;63771;52.580;9.734;2023-08-01T06:34:53;99264.25;;;16.52;100.00
75192;BME280;63771;52.580;9.734;2023-08-01T06:37:18;99266.69;;;16.49;100.00
75192;BME280;63771;52.580;9.734;2023-08-01T06:39:43;99264.25;;;16.52;100.00
75192;BME280;63771;52.580;9.734;2023-08-01T06:42:09;99269.56;;;16.57;100.00
75192;BME280;63771;52.580;9.734;2023-08-01T06:44:34;99267.75;;;16.54;100.00
75192;BME280;63771;52.580;9.734;2023-08-01T06:46:59;99272.84;;;16.53;100.00
75192;BME280;63771;52.580;9.734;2023-08-01T06:49:25;99268.47;;;16.50;100.00
75192;BME280;63771;52.580;9.734;2023-08-01T06:51:50;99270.09;;;16.48;100.00
75192;BME280;63771;52.580;9.734;2023-08-01T06:54:15;99274.53;;;16.52;100.00
75192;BME280;63771;52.580;9.734;2023-08-01T06:56:41;99279.06;;;16.59;100.00
75192;BME280;63771;52.580;9.734;2023-08-01T06:59:15;99280.72;;;16.57;100.00
75192;BME280;63771;52.580;9.734;2023-08-01T07:01:43;99284.13;;;16.56;100.00
75192;BME280;63771;52.580;9.734;2023-08-01T07:04:12;99280.78;;;16.59;100.00
75192;BME280;63771;52.580;9.734;2023-08-01T07:06:39;99281.47;;;16.55;100.00
75192;BME280;63771;52.580;9.734;2023-08-01T07:09:04;99285.72;;;16.53;100.00
75192;BME280;63771;52.580;9.734;2023-08-01T07:11:30;99289.94;;;16.51;100.00
75192;BME280;63771;52.580;9.734;2023-08-01T07:13:55;99293.28;;;16.48;100.00
75192;BME280;63771;52.580;9.734;2023-08-01T07:16:21;99299.38;;;16.50;100.00
75192;BME280;63771;52.580;9.734;2023-08-01T07:18:46;99299.25;;;16.47;100.00
75192;BME280;63771;52.580;9.734;2023-08-01T07:21:13;99302.53;;;16.43;100.00
75192;BME280;63771;52.580;9.734;2023-08-01T07:23:39;99306.94;;;16.46;100.00
75192;BME280;63771;52.580;9.734;2023-08-01T07:26:04;99301.00;;;16.48;100.00
75192;BME280;63771;52.580;9.734;2023-08-01T07:28:29;99308.94;;;16.54;100.00
75192;BME280;63771;52.580;9.734;2023-08-01T07:31:03;99301.28;;;16.56;100.00
75192;BME280;63771;52.580;9.734;2023-08-01T07:33:29;99301.13;;;16.51;100.00
75192;BME280;63771;52.580;9.734;2023-08-01T07:35:55;99310.47;;;16.49;99.81
75192;BME280;63771;52.580;9.734;2023-08-01T07:38:20;99306.97;;;16.47;100.00
75192;BME280;63771;52.580;9.734;2023-08-01T07:40:45;99306.16;;;16.48;100.00
75192;BME280;63771;52.580;9.734;2023-08-01T07:43:11;99314.75;;;16.49;100.00
75192;BME280;63771;52.580;9.734;2023-08-01T07:45:37;99313.22;;;16.54;100.00
75192;BME280;63771;52.580;9.734;2023-08-01T07:48:03;99316.81;;;16.59;100.00
75192;BME280;63771;52.580;9.734;2023-08-01T07:50:28;99311.75;;;16.60;100.00
75192;BME280;63771;52.580;9.734;2023-08-01T07:52:53;99321.09;;;16.58;100.00
75192;BME280;63771;52.580;9.734;2023-08-01T07:55:19;99319.47;;;16.60;100.00
75192;BME280;63771;52.580;9.734;2023-08-01T07:57:46;99314.22;;;16.57;100.00
75192;BME280;63771;52.580;9.734;2023-08-01T08:00:11;99311.75;;;16.60;100.00
75192;BME280;63771;52.580;9.734;2023-08-01T08:02:36;99305.78;;;16.61;100.00
75192;BME280;63771;52.580;9.734;2023-08-01T08:05:02;99307.78;;;16.70;100.00
75192;BME280;63771;52.580;9.734;2023-08-01T08:07:27;99305.38;;;16.75;100.00
75192;BME280;63771;52.580;9.734;2023-08-01T08:09:52;99312.53;;;16.82;100.00
75192;BME280;63771;52.580;9.734;2023-08-01T08:12:20;99310.19;;;16.89;100.00
75192;BME280;63771;52.580;9.734;2023-08-01T08:14:45;99314.88;;;17.01;100.00
75192;BME280;63771;52.580;9.734;2023-08-01T08:17:11;99316.78;;;17.07;99.50
75192;BME280;63771;52.580;9.734;2023-08-01T08:19:36;99312.66;;;17.12;96.92
75192;BME280;63771;52.580;9.734;2023-08-01T08:22:01;99308.47;;;17.15;97.04
75192;BME280;63771;52.580;9.734;2023-08-01T08:24:27;99309.53;;;17.22;96.56
75192;BME280;63771;52.580;9.734;2023-08-01T08:26:52;99311.34;;;17.25;96.21
75192;BME280;63771;52.580;9.734;2023-08-01T08:29:17;99297.75;;;17.29;95.40
75192;BME280;63771;52.580;9.734;2023-08-01T08:31:43;99295.34;;;17.35;94.35
75192;BME280;63771;52.580;9.734;2023-08-01T08:34:08;99288.66;;;17.40;92.77
75192;BME280;63771;52.580;9.734;2023-08-01T08:36:33;99283.56;;;17.43;91.56
75192;BME280;63771;52.580;9.734;2023-08-01T08:38:59;99294.97;;;17.50;94.52
75192;BME280;63771;52.580;9.734;2023-08-01T08:41:26;99288.31;;;17.58;92.48
75192;BME280;63771;52.580;9.734;2023-08-01T08:43:56;99279.16;;;17.67;90.90
75192;BME280;63771;52.580;9.734;2023-08-01T08:46:28;99281.13;;;17.74;90.16
75192;BME280;63771;52.580;9.734;2023-08-01T08:48:56;99286.19;;;17.71;88.55
75192;BME280;63771;52.580;9.734;2023-08-01T08:51:21;99293.78;;;17.67;89.50
75192;BME280;63771;52.580;9.734;2023-08-01T08:53:48;99291.16;;;17.65;90.25
75192;BME280;63771;52.580;9.734;2023-08-01T08:56:17;99288.72;;;17.70;89.16
75192;BME280;63771;52.580;9.734;2023-08-01T08:58:43;99290.69;;;17.77;88.35
75192;BME280;63771;52.580;9.734;2023-08-01T09:01:09;99286.38;;;17.78;87.69
75192;BME280;63771;52.580;9.734;2023-08-01T09:03:34;99296.84;;;17.82;88.96
75192;BME280;63771;52.580;9.734;2023-08-01T09:06:04;99289.94;;;17.81;88.73
75192;BME280;63771;52.580;9.734;2023-08-01T09:08:35;99296.91;;;17.85;90.02
75192;BME280;63771;52.580;9.734;2023-08-01T09:11:01;99290.25;;;17.92;92.17
75192;BME280;63771;52.580;9.734;2023-08-01T09:13:27;99299.00;;;17.97;87.36
75192;BME280;63771;52.580;9.734;2023-08-01T09:15:52;99293.28;;;18.07;89.05
75192;BME280;63771;52.580;9.734;2023-08-01T09:18:18;99297.88;;;18.17;89.26
75192;BME280;63771;52.580;9.734;2023-08-01T09:20:47;99309.94;;;18.18;85.88
75192;BME280;63771;52.580;9.734;2023-08-01T09:23:13;99302.28;;;18.21;86.67
75192;BME280;63771;52.580;9.734;2023-08-01T09:25:40;99298.88;;;18.22;85.47
75192;BME280;63771;52.580;9.734;2023-08-01T09:28:19;99305.81;;;18.25;85.64
75192;BME280;63771;52.580;9.734;2023-08-01T09:30:55;99315.38;;;18.28;85.42
75192;BME280;63771;52.580;9.734;2023-08-01T09:33:21;99312.13;;;18.35;84.75
75192;BME280;63771;52.580;9.734;2023-08-01T09:35:49;99311.38;;;18.39;84.17
75192;BME280;63771;52.580;9.734;2023-08-01T09:38:15;99310.66;;;18.43;83.70
75192;BME280;63771;52.580;9.734;2023-08-01T09:40:41;99309.56;;;18.36;82.47
75192;BME280;63771;52.580;9.734;2023-08-01T09:43:07;99306.78;;;18.29;83.54
75192;BME280;63771;52.580;9.734;2023-08-01T09:45:32;99310.09;;;18.23;83.35
75192;BME280;63771;52.580;9.734;2023-08-01T09:47:59;99304.09;;;18.24;84.53
75192;BME280;63771;52.580;9.734;2023-08-01T09:50:25;99296.47;;;18.29;85.99
75192;BME280;63771;52.580;9.734;2023-08-01T09:52:50;99302.56;;;18.32;84.80
75192;BME280;63771;52.580;9.734;2023-08-01T09:55:26;99306.25;;;18.40;80.60
75192;BME280;63771;52.580;9.734;2023-08-01T09:57:57;99314.91;;;18.42;79.65
75192;BME280;63771;52.580;9.734;2023-08-01T10:00:25;99310.75;;;18.47;79.26
75192;BME280;63771;52.580;9.734;2023-08-01T10:02:51;99312.81;;;18.59;81.59
75192;BME280;63771;52.580;9.734;2023-08-01T10:05:18;99312.28;;;18.71;83.81
75192;BME280;63771;52.580;9.734;2023-08-01T10:07:45;99309.06;;;18.80;82.39
75192;BME280;63771;52.580;9.734;2023-08-01T10:10:11;99310.88;;;18.84;80.31
75192;BME280;63771;52.580;9.734;2023-08-01T10:12:37;99311.81;;;18.86;78.21
75192;BME280;63771;52.580;9.734;2023-08-01T10:15:03;99309.25;;;18.87;79.26
75192;BME280;63771;52.580;9.734;2023-08-01T10:17:30;99318.72;;;18.87;78.67
75192;BME280;63771;52.580;9.734;2023-08-01T10:19:56;99315.94;;;18.79;75.36
75192;BME280;63771;52.580;9.734;2023-08-01T10:22:21;99309.94;;;18.80;76.93
75192;BME280;63771;52.580;9.734;2023-08-01T10:24:48;99299.63;;;18.82;72.72
75192;BME280;63771;52.580;9.734;2023-08-01T10:27:15;99304.13;;;18.89;74.54
75192;BME280;63771;52.580;9.734;2023-08-01T10:29:42;99313.94;;;19.02;75.64
75192;BME280;63771;52.580;9.734;2023-08-01T10:32:07;99302.84;;;19.06;72.94
75192;BME280;63771;52.580;9.734;2023-08-01T10:34:33;99315.81;;;19.08;73.48
75192;BME280;63771;52.580;9.734;2023-08-01T10:36:59;99315.84;;;19.09;72.97
75192;BME280;63771;52.580;9.734;2023-08-01T10:39:26;99302.84;;;19.06;71.50
75192;BME280;63771;52.580;9.734;2023-08-01T10:41:59;99309.50;;;18.96;70.84
75192;BME280;63771;52.580;9.734;2023-08-01T10:44:24;99306.94;;;18.98;71.93
75192;BME280;63771;52.580;9.734;2023-08-01T10:46:59;99311.97;;;18.92;71.85
75192;BME280;63771;52.580;9.734;2023-08-01T10:52:18;99314.34;;;18.84;74.31
75192;BME280;63771;52.580;9.734;2023-08-01T10:54:43;99305.91;;;18.90;73.90
75192;BME280;63771;52.580;9.734;2023-08-01T10:57:15;99314.69;;;18.96;73.89
75192;BME280;63771;52.580;9.734;2023-08-01T10:59:41;99298.47;;;19.03;75.35
75192;BME280;63771;52.580;9.734;2023-08-01T11:02:07;99302.28;;;19.18;77.32
75192;BME280;63771;52.580;9.734;2023-08-01T11:04:32;99305.22;;;19.32;76.04
75192;BME280;63771;52.580;9.734;2023-08-01T11:06:58;99302.06;;;19.46;73.73
75192;BME280;63771;52.580;9.734;2023-08-01T11:09:25;99305.09;;;19.63;73.02
75192;BME280;63771;52.580;9.734;2023-08-01T11:11:55;99291.59;;;19.76;72.40
75192;BME280;63771;52.580;9.734;2023-08-01T11:14:22;99305.59;;;19.85;70.13
75192;BME280;63771;52.580;9.734;2023-08-01T11:16:49;99311.72;;;19.90;68.55
75192;BME280;63771;52.580;9.734;2023-08-01T11:19:23;99312.50;;;19.86;68.88
75192;BME280;63771;52.580;9.734;2023-08-01T11:21:49;99310.69;;;19.81;67.73
75192;BME280;63771;52.580;9.734;2023-08-01T11:24:16;99311.56;;;19.84;68.37
75192;BME280;63771;52.580;9.734;2023-08-01T11:26:46;99303.00;;;19.86;69.31
75192;BME280;63771;52.580;9.734;2023-08-01T11:29:13;99315.25;;;19.93;69.04
75192;BME280;63771;52.580;9.734;2023-08-01T11:31:39;99319.50;;;19.90;67.24
75192;BME280;63771;52.580;9.734;2023-08-01T11:34:07;99340.63;;;19.70;68.27
75192;BME280;63771;52.580;9.734;2023-08-01T11:36:33;99356.28;;;19.42;73.21
75192;BME280;63771;52.580;9.734;2023-08-01T11:38:59;99360.63;;;19.08;79.09
75192;BME280;63771;52.580;9.734;2023-08-01T11:41:29;99385.75;;;18.81;81.99
75192;BME280;63771;52.580;9.734;2023-08-01T11:43:55;99380.94;;;18.33;82.66
75192;BME280;63771;52.580;9.734;2023-08-01T11:46:21;99385.41;;;17.81;85.45
75192;BME280;63771;52.580;9.734;2023-08-01T11:48:47;99380.94;;;17.76;88.90
75192;BME280;63771;52.580;9.734;2023-08-01T11:51:13;99379.78;;;17.67;89.31
75192;BME280;63771;52.580;9.734;2023-08-01T11:53:38;99380.41;;;17.60;90.37
75192;BME280;63771;52.580;9.734;2023-08-01T11:56:05;99374.63;;;17.67;92.18
75192;BME280;63771;52.580;9.734;2023-08-01T11:58:32;99379.06;;;17.71;91.19
75192;BME280;63771;52.580;9.734;2023-08-01T12:01:13;99373.19;;;17.76;91.31
75192;BME280;63771;52.580;9.734;2023-08-01T12:03:49;99388.88;;;17.82;92.43
75192;BME280;63771;52.580;9.734;2023-08-01T12:06:16;99386.56;;;17.91;94.23
75192;BME280;63771;52.580;9.734;2023-08-01T12:08:43;99377.38;;;18.00;94.79
75192;BME280;63771;52.580;9.734;2023-08-01T12:11:22;99383.63;;;18.07;93.49
75192;BME280;63771;52.580;9.734;2023-08-01T12:13:48;99373.66;;;18.19;94.79
75192;BME280;63771;52.580;9.734;2023-08-01T12:16:24;99367.38;;;18.40;93.26
75192;BME280;63771;52.580;9.734;2023-08-01T12:18:49;99361.47;;;18.44;89.43
75192;BME280;63771;52.580;9.734;2023-08-01T12:21:15;99354.59;;;18.44;85.32
75192;BME280;63771;52.580;9.734;2023-08-01T12:23:40;99367.47;;;18.43;86.73
75192;BME280;63771;52.580;9.734;2023-08-01T12:26:07;99368.22;;;18.39;86.33
75192;BME280;63771;52.580;9.734;2023-08-01T12:28:32;99358.34;;;18.25;85.81
75192;BME280;63771;52.580;9.734;2023-08-01T12:30:57;99372.47;;;18.08;85.41
75192;BME280;63771;52.580;9.734;2023-08-01T12:33:24;99399.84;;;18.03;87.11
75192;BME280;63771;52.580;9.734;2023-08-01T12:35:49;99394.75;;;17.78;87.62
75192;BME280;63771;52.580;9.734;2023-08-01T12:38:14;99395.78;;;17.57;90.14
75192;BME280;63771;52.580;9.734;2023-08-01T12:40:39;99404.69;;;17.40;91.47
75192;BME280;63771;52.580;9.734;2023-08-01T12:43:05;99407.72;;;17.28;91.09
75192;BME280;63771;52.580;9.734;2023-08-01T12:45:30;99416.94;;;17.21;92.61
75192;BME280;63771;52.580;9.734;2023-08-01T12:47:55;99412.41;;;17.14;93.08
75192;BME280;63771;52.580;9.734;2023-08-01T12:50:21;99417.25;;;17.05;94.07